sensor_id;sensor_type;location;lat;lon;timestamp;P1;durP1;ratioP1;P2;durP2;ratioP2
76552;SDS011;65395;53.168;18.156;2023-08-06T00:00:39;8.90;;;4.80;;
76552;SDS011;65395;53.168;18.156;2023-08-06T00:03:26;5.50;;;4.20;;
76552;SDS011;65395;53.168;18.156;2023-08-06T00:05:53;5.40;;;4.30;;
76552;SDS011;65395;53.168;18.156;2023-08-06T00:08:20;5.20;;;4.20;;
76552;SDS011;65395;53.168;18.156;2023-08-06T00:10:47;5.00;;;4.00;;
76552;SDS011;65395;53.168;18.156;2023-08-06T00:13:15;5.80;;;4.10;;
76552;SDS011;65395;53.168;18.156;2023-08-06T00:15:42;6.10;;;4.50;;
76552;SDS011;65395;53.168;18.156;2023-08-06T00:18:09;5.70;;;4.00;;
76552;SDS011;65395;53.168;18.156;2023-08-06T00:20:38;7.30;;;4.30;;
76552;SDS011;65395;53.168;18.156;2023-08-06T00:23:05;5.50;;;4.10;;
76552;SDS011;65395;53.168;18.156;2023-08-06T00:25:32;10.10;;;4.40;;
76552;SDS011;65395;53.168;18.156;2023-08-06T00:28:00;6.10;;;4.30;;
76552;SDS011;65395;53.168;18.156;2023-08-06T00:30:27;6.70;;;4.40;;
76552;SDS011;65395;53.168;18.156;2023-08-06T00:32:53;6.90;;;4.40;;
76552;SDS011;65395;53.168;18.156;2023-08-06T00:35:20;8.10;;;4.40;;
76552;SDS011;65395;53.168;18.156;2023-08-06T00:37:47;8.40;;;4.50;;
76552;SDS011;65395;53.168;18.156;2023-08-06T00:40:14;5.70;;;4.10;;
76552;SDS011;65395;53.168;18.156;2023-08-06T00:42:40;6.70;;;3.80;;
76552;SDS011;65395;53.168;18.156;2023-08-06T00:45:07;5.40;;;3.90;;
76552;SDS011;65395;53.168;18.156;2023-08-06T00:47:34;5.50;;;4.10;;
76552;SDS011;65395;53.168;18.156;2023-08-06T00:50:01;6.90;;;4.10;;
76552;SDS011;65395;53.168;18.156;2023-08-06T00:52:29;7.00;;;4.20;;
76552;SDS011;65395;53.168;18.156;2023-08-06T00:54:55;8.10;;;4.30;;
76552;SDS011;65395;53.168;18.156;2023-08-06T00:57:23;5.50;;;4.50;;
76552;SDS011;65395;53.168;18.156;2023-08-06T00:59:52;5.80;;;4.30;;
76552;SDS011;65395;53.168;18.156;2023-08-06T01:02:20;6.40;;;4.50;;
76552;SDS011;65395;53.168;18.156;2023-08-06T01:04:47;7.70;;;4.70;;
76552;SDS011;65395;53.168;18.156;2023-08-06T01:07:36;6.70;;;4.30;;
76552;SDS011;65395;53.168;18.156;2023-08-06T01:10:15;6.10;;;4.50;;
76552;SDS011;65395;53.168;18.156;2023-08-06T01:12:59;10.60;;;4.80;;
76552;SDS011;65395;53.168;18.156;2023-08-06T01:15:54;9.40;;;4.80;;
76552;SDS011;65395;53.168;18.156;2023-08-06T01:18:23;7.80;;;5.00;;
76552;SDS011;65395;53.168;18.156;2023-08-06T01:20:50;7.60;;;4.80;;
76552;SDS011;65395;53.168;18.156;2023-08-06T01:23:17;7.20;;;5.10;;
76552;SDS011;65395;53.168;18.156;2023-08-06T01:25:49;7.50;;;4.90;;
76552;SDS011;65395;53.168;18.156;2023-08-06T01:28:33;8.80;;;5.10;;
76552;SDS011;65395;53.168;18.156;2023-08-06T01:31:26;5.70;;;5.10;;
76552;SDS011;65395;53.168;18.156;2023-08-06T01:33:58;8.40;;;5.00;;
76552;SDS011;65395;53.168;18.156;2023-08-06T01:36:26;5.90;;;4.70;;
76552;SDS011;65395;53.168;18.156;2023-08-06T01:38:54;6.60;;;5.20;;
76552;SDS011;65395;53.168;18.156;2023-08-06T01:41:22;6.20;;;5.20;;
76552;SDS011;65395;53.168;18.156;2023-08-06T01:43:48;9.10;;;6.00;;
76552;SDS011;65395;53.168;18.156;2023-08-06T01:46:15;6.40;;;5.40;;
76552;SDS011;65395;53.168;18.156;2023-08-06T01:48:42;7.90;;;5.70;;
76552;SDS011;65395;53.168;18.156;2023-08-06T01:51:09;8.00;;;5.50;;
76552;SDS011;65395;53.168;18.156;2023-08-06T01:53:36;7.60;;;5.80;;
76552;SDS011;65395;53.168;18.156;2023-08-06T01:56:03;7.90;;;5.20;;
76552;SDS011;65395;53.168;18.156;2023-08-06T01:58:29;8.80;;;6.10;;
76552;SDS011;65395;53.168;18.156;2023-08-06T02:00:56;7.40;;;5.50;;
76552;SDS011;65395;53.168;18.156;2023-08-06T02:03:24;6.70;;;5.60;;
76552;SDS011;65395;53.168;18.156;2023-08-06T02:05:51;10.20;;;5.50;;
76552;SDS011;65395;53.168;18.156;2023-08-06T02:08:17;7.20;;;5.40;;
76552;SDS011;65395;53.168;18.156;2023-08-06T02:10:44;7.70;;;5.50;;
76552;SDS011;65395;53.168;18.156;2023-08-06T02:13:11;7.60;;;5.30;;
76552;SDS011;65395;53.168;18.156;2023-08-06T02:15:45;5.50;;;5.00;;
76552;SDS011;65395;53.168;18.156;2023-08-06T02:18:14;7.40;;;4.90;;
76552;SDS011;65395;53.168;18.156;2023-08-06T02:20:42;5.80;;;4.80;;
76552;SDS011;65395;53.168;18.156;2023-08-06T02:23:09;6.80;;;4.50;;
76552;SDS011;65395;53.168;18.156;2023-08-06T02:25:36;7.20;;;4.80;;
76552;SDS011;65395;53.168;18.156;2023-08-06T02:28:03;5.30;;;4.50;;
76552;SDS011;65395;53.168;18.156;2023-08-06T02:30:30;6.40;;;4.30;;
76552;SDS011;65395;53.168;18.156;2023-08-06T02:32:57;6.40;;;4.50;;
76552;SDS011;65395;53.168;18.156;2023-08-06T02:35:23;8.20;;;4.40;;
76552;SDS011;65395;53.168;18.156;2023-08-06T02:37:50;8.70;;;4.70;;
76552;SDS011;65395;53.168;18.156;2023-08-06T02:40:17;7.10;;;4.70;;
76552;SDS011;65395;53.168;18.156;2023-08-06T02:42:44;6.40;;;4.40;;
76552;SDS011;65395;53.168;18.156;2023-08-06T02:45:10;6.60;;;4.10;;
76552;SDS011;65395;53.168;18.156;2023-08-06T02:47:37;5.30;;;4.30;;
76552;SDS011;65395;53.168;18.156;2023-08-06T02:50:04;10.20;;;4.40;;
76552;SDS011;65395;53.168;18.156;2023-08-06T02:52:31;5.80;;;4.70;;
76552;SDS011;65395;53.168;18.156;2023-08-06T02:54:58;7.20;;;4.60;;
76552;SDS011;65395;53.168;18.156;2023-08-06T02:57:27;6.60;;;4.40;;
76552;SDS011;65395;53.168;18.156;2023-08-06T02:59:54;5.80;;;4.10;;
76552;SDS011;65395;53.168;18.156;2023-08-06T03:02:23;6.20;;;4.10;;
76552;SDS011;65395;53.168;18.156;2023-08-06T03:05:00;9.50;;;4.60;;
76552;SDS011;65395;53.168;18.156;2023-08-06T03:07:30;5.70;;;4.20;;
76552;SDS011;65395;53.168;18.156;2023-08-06T03:10:02;5.70;;;4.20;;
76552;SDS011;65395;53.168;18.156;2023-08-06T03:12:29;6.60;;;4.40;;
76552;SDS011;65395;53.168;18.156;2023-08-06T03:14:57;6.40;;;4.20;;
76552;SDS011;65395;53.168;18.156;2023-08-06T03:17:25;5.10;;;4.00;;
76552;SDS011;65395;53.168;18.156;2023-08-06T03:19:52;4.80;;;4.00;;
76552;SDS011;65395;53.168;18.156;2023-08-06T03:22:19;5.50;;;4.20;;
76552;SDS011;65395;53.168;18.156;2023-08-06T03:24:46;4.10;;;3.70;;
76552;SDS011;65395;53.168;18.156;2023-08-06T03:27:18;4.40;;;4.00;;
76552;SDS011;65395;53.168;18.156;2023-08-06T03:29:44;7.50;;;4.00;;
76552;SDS011;65395;53.168;18.156;2023-08-06T03:32:11;4.80;;;3.80;;
76552;SDS011;65395;53.168;18.156;2023-08-06T03:34:39;5.60;;;3.90;;
76552;SDS011;65395;53.168;18.156;2023-08-06T03:37:06;4.80;;;3.80;;
76552;SDS011;65395;53.168;18.156;2023-08-06T03:39:33;5.40;;;4.10;;
76552;SDS011;65395;53.168;18.156;2023-08-06T03:42:00;6.20;;;4.20;;
76552;SDS011;65395;53.168;18.156;2023-08-06T03:44:27;5.70;;;4.40;;
76552;SDS011;65395;53.168;18.156;2023-08-06T03:46:55;6.50;;;4.00;;
76552;SDS011;65395;53.168;18.156;2023-08-06T03:49:21;7.00;;;4.10;;
76552;SDS011;65395;53.168;18.156;2023-08-06T03:51:48;5.90;;;4.10;;
76552;SDS011;65395;53.168;18.156;2023-08-06T03:54:15;7.00;;;4.10;;
76552;SDS011;65395;53.168;18.156;2023-08-06T03:56:41;4.70;;;4.10;;
76552;SDS011;65395;53.168;18.156;2023-08-06T03:59:08;5.70;;;4.40;;
76552;SDS011;65395;53.168;18.156;2023-08-06T04:01:35;4.90;;;4.40;;
76552;SDS011;65395;53.168;18.156;2023-08-06T04:04:03;6.20;;;4.60;;
76552;SDS011;65395;53.168;18.156;2023-08-06T04:06:29;6.30;;;5.10;;
76552;SDS011;65395;53.168;18.156;2023-08-06T04:08:56;5.50;;;4.60;;
76552;SDS011;65395;53.168;18.156;2023-08-06T04:11:23;6.90;;;4.50;;
76552;SDS011;65395;53.168;18.156;2023-08-06T04:13:50;7.30;;;5.10;;
76552;SDS011;65395;53.168;18.156;2023-08-06T04:16:17;6.00;;;4.70;;
76552;SDS011;65395;53.168;18.156;2023-08-06T04:18:44;4.60;;;3.90;;
76552;SDS011;65395;53.168;18.156;2023-08-06T04:21:13;5.20;;;4.00;;
76552;SDS011;65395;53.168;18.156;2023-08-06T04:23:40;5.80;;;4.10;;
76552;SDS011;65395;53.168;18.156;2023-08-06T04:26:08;5.60;;;4.40;;
76552;SDS011;65395;53.168;18.156;2023-08-06T04:28:35;6.50;;;4.20;;
76552;SDS011;65395;53.168;18.156;2023-08-06T04:31:02;8.50;;;4.10;;
76552;SDS011;65395;53.168;18.156;2023-08-06T04:33:30;5.90;;;4.00;;
76552;SDS011;65395;53.168;18.156;2023-08-06T04:35:59;5.20;;;4.00;;
76552;SDS011;65395;53.168;18.156;2023-08-06T04:38:26;4.80;;;3.30;;
76552;SDS011;65395;53.168;18.156;2023-08-06T04:40:54;4.40;;;3.40;;
76552;SDS011;65395;53.168;18.156;2023-08-06T04:43:21;4.30;;;3.30;;
76552;SDS011;65395;53.168;18.156;2023-08-06T04:45:49;4.30;;;2.90;;
76552;SDS011;65395;53.168;18.156;2023-08-06T04:48:17;3.70;;;2.90;;
76552;SDS011;65395;53.168;18.156;2023-08-06T04:50:44;4.40;;;2.70;;
76552;SDS011;65395;53.168;18.156;2023-08-06T04:53:12;4.60;;;2.90;;
76552;SDS011;65395;53.168;18.156;2023-08-06T04:55:38;4.70;;;2.80;;
76552;SDS011;65395;53.168;18.156;2023-08-06T04:58:06;3.80;;;2.40;;
76552;SDS011;65395;53.168;18.156;2023-08-06T05:00:33;4.70;;;2.80;;
76552;SDS011;65395;53.168;18.156;2023-08-06T05:03:00;3.60;;;2.60;;
76552;SDS011;65395;53.168;18.156;2023-08-06T05:05:28;3.90;;;2.80;;
76552;SDS011;65395;53.168;18.156;2023-08-06T05:07:56;4.70;;;2.90;;
76552;SDS011;65395;53.168;18.156;2023-08-06T05:10:25;4.10;;;2.70;;
76552;SDS011;65395;53.168;18.156;2023-08-06T05:12:52;3.40;;;2.60;;
76552;SDS011;65395;53.168;18.156;2023-08-06T05:15:20;4.70;;;3.20;;
76552;SDS011;65395;53.168;18.156;2023-08-06T05:17:46;4.30;;;3.00;;
76552;SDS011;65395;53.168;18.156;2023-08-06T05:20:13;3.70;;;3.40;;
76552;SDS011;65395;53.168;18.156;2023-08-06T05:22:40;5.00;;;3.90;;
76552;SDS011;65395;53.168;18.156;2023-08-06T05:25:07;5.50;;;4.40;;
76552;SDS011;65395;53.168;18.156;2023-08-06T05:27:34;4.80;;;4.20;;
76552;SDS011;65395;53.168;18.156;2023-08-06T05:30:00;5.90;;;5.00;;
76552;SDS011;65395;53.168;18.156;2023-08-06T05:32:27;6.50;;;5.90;;
76552;SDS011;65395;53.168;18.156;2023-08-06T05:34:54;8.00;;;5.50;;
76552;SDS011;65395;53.168;18.156;2023-08-06T05:37:21;7.00;;;5.60;;
76552;SDS011;65395;53.168;18.156;2023-08-06T05:39:47;8.50;;;6.10;;
76552;SDS011;65395;53.168;18.156;2023-08-06T05:42:14;6.70;;;6.10;;
76552;SDS011;65395;53.168;18.156;2023-08-06T05:44:41;6.50;;;5.90;;
76552;SDS011;65395;53.168;18.156;2023-08-06T05:47:08;6.40;;;5.80;;
76552;SDS011;65395;53.168;18.156;2023-08-06T05:49:34;8.20;;;5.20;;
76552;SDS011;65395;53.168;18.156;2023-08-06T05:52:01;7.40;;;5.00;;
76552;SDS011;65395;53.168;18.156;2023-08-06T05:54:29;6.30;;;5.00;;
76552;SDS011;65395;53.168;18.156;2023-08-06T05:56:55;6.40;;;4.70;;
76552;SDS011;65395;53.168;18.156;2023-08-06T05:59:22;6.70;;;4.90;;
76552;SDS011;65395;53.168;18.156;2023-08-06T06:01:49;5.70;;;4.50;;
76552;SDS011;65395;53.168;18.156;2023-08-06T06:04:15;7.00;;;4.80;;
76552;SDS011;65395;53.168;18.156;2023-08-06T06:06:42;5.80;;;4.70;;
76552;SDS011;65395;53.168;18.156;2023-08-06T06:09:09;6.20;;;4.80;;
76552;SDS011;65395;53.168;18.156;2023-08-06T06:11:36;7.30;;;4.90;;
76552;SDS011;65395;53.168;18.156;2023-08-06T06:14:02;5.90;;;4.70;;
76552;SDS011;65395;53.168;18.156;2023-08-06T06:16:29;6.70;;;4.60;;
76552;SDS011;65395;53.168;18.156;2023-08-06T06:18:56;6.60;;;5.30;;
76552;SDS011;65395;53.168;18.156;2023-08-06T06:21:24;8.30;;;5.30;;
76552;SDS011;65395;53.168;18.156;2023-08-06T06:23:50;9.00;;;5.80;;
76552;SDS011;65395;53.168;18.156;2023-08-06T06:26:18;6.80;;;5.20;;
76552;SDS011;65395;53.168;18.156;2023-08-06T06:28:45;6.70;;;5.40;;
76552;SDS011;65395;53.168;18.156;2023-08-06T06:31:12;8.60;;;5.10;;
76552;SDS011;65395;53.168;18.156;2023-08-06T06:33:38;6.50;;;5.60;;
76552;SDS011;65395;53.168;18.156;2023-08-06T06:36:05;8.30;;;5.20;;
76552;SDS011;65395;53.168;18.156;2023-08-06T06:38:34;7.20;;;5.30;;
76552;SDS011;65395;53.168;18.156;2023-08-06T06:41:01;6.30;;;5.30;;
76552;SDS011;65395;53.168;18.156;2023-08-06T06:43:29;7.60;;;5.30;;
76552;SDS011;65395;53.168;18.156;2023-08-06T06:45:56;6.90;;;5.40;;
76552;SDS011;65395;53.168;18.156;2023-08-06T06:48:26;6.30;;;5.50;;
76552;SDS011;65395;53.168;18.156;2023-08-06T06:50:55;5.70;;;4.70;;
76552;SDS011;65395;53.168;18.156;2023-08-06T06:53:22;7.00;;;5.10;;
76552;SDS011;65395;53.168;18.156;2023-08-06T06:55:54;7.40;;;5.30;;
76552;SDS011;65395;53.168;18.156;2023-08-06T06:58:21;6.30;;;5.10;;
76552;SDS011;65395;53.168;18.156;2023-08-06T07:00:48;5.40;;;4.90;;
76552;SDS011;65395;53.168;18.156;2023-08-06T07:03:15;7.00;;;4.90;;
76552;SDS011;65395;53.168;18.156;2023-08-06T07:05:42;6.80;;;4.90;;
76552;SDS011;65395;53.168;18.156;2023-08-06T07:08:11;7.70;;;4.70;;
76552;SDS011;65395;53.168;18.156;2023-08-06T07:10:38;5.60;;;4.80;;
76552;SDS011;65395;53.168;18.156;2023-08-06T07:13:07;6.20;;;5.00;;
76552;SDS011;65395;53.168;18.156;2023-08-06T07:15:34;5.40;;;4.90;;
76552;SDS011;65395;53.168;18.156;2023-08-06T07:18:01;5.40;;;4.60;;
76552;SDS011;65395;53.168;18.156;2023-08-06T07:20:28;6.20;;;4.60;;
76552;SDS011;65395;53.168;18.156;2023-08-06T07:22:58;6.70;;;5.10;;
76552;SDS011;65395;53.168;18.156;2023-08-06T07:25:25;6.50;;;5.20;;
76552;SDS011;65395;53.168;18.156;2023-08-06T07:27:52;7.20;;;5.10;;
76552;SDS011;65395;53.168;18.156;2023-08-06T07:30:19;6.20;;;5.10;;
76552;SDS011;65395;53.168;18.156;2023-08-06T07:32:45;5.40;;;4.90;;
76552;SDS011;65395;53.168;18.156;2023-08-06T07:35:12;5.90;;;5.20;;
76552;SDS011;65395;53.168;18.156;2023-08-06T07:37:40;8.10;;;5.20;;
76552;SDS011;65395;53.168;18.156;2023-08-06T07:40:07;7.10;;;5.00;;
76552;SDS011;65395;53.168;18.156;2023-08-06T07:42:35;6.60;;;5.20;;
76552;SDS011;65395;53.168;18.156;2023-08-06T07:45:01;6.40;;;5.00;;
76552;SDS011;65395;53.168;18.156;2023-08-06T07:47:28;6.40;;;4.60;;
76552;SDS011;65395;53.168;18.156;2023-08-06T07:49:55;7.50;;;4.50;;
76552;SDS011;65395;53.168;18.156;2023-08-06T07:52:22;5.90;;;4.50;;
76552;SDS011;65395;53.168;18.156;2023-08-06T07:54:48;5.80;;;4.70;;
76552;SDS011;65395;53.168;18.156;2023-08-06T07:57:15;5.60;;;4.90;;
76552;SDS011;65395;53.168;18.156;2023-08-06T07:59:42;6.20;;;5.40;;
76552;SDS011;65395;53.168;18.156;2023-08-06T08:02:08;8.50;;;5.30;;
76552;SDS011;65395;53.168;18.156;2023-08-06T08:04:35;6.60;;;5.50;;
76552;SDS011;65395;53.168;18.156;2023-08-06T08:07:02;7.00;;;5.70;;
76552;SDS011;65395;53.168;18.156;2023-08-06T08:09:29;6.50;;;5.80;;
76552;SDS011;65395;53.168;18.156;2023-08-06T08:11:55;7.80;;;5.60;;
76552;SDS011;65395;53.168;18.156;2023-08-06T08:14:23;7.30;;;6.10;;
76552;SDS011;65395;53.168;18.156;2023-08-06T08:16:49;6.10;;;5.50;;
76552;SDS011;65395;53.168;18.156;2023-08-06T08:19:16;6.10;;;4.90;;
76552;SDS011;65395;53.168;18.156;2023-08-06T08:21:43;5.40;;;4.40;;
76552;SDS011;65395;53.168;18.156;2023-08-06T08:24:09;7.60;;;4.90;;
76552;SDS011;65395;53.168;18.156;2023-08-06T08:26:36;4.10;;;3.70;;
76552;SDS011;65395;53.168;18.156;2023-08-06T08:29:03;5.20;;;4.00;;
76552;SDS011;65395;53.168;18.156;2023-08-06T08:31:29;5.50;;;4.00;;
76552;SDS011;65395;53.168;18.156;2023-08-06T08:33:56;6.30;;;4.00;;
76552;SDS011;65395;53.168;18.156;2023-08-06T08:36:24;5.10;;;3.90;;
76552;SDS011;65395;53.168;18.156;2023-08-06T08:38:51;5.50;;;3.90;;
76552;SDS011;65395;53.168;18.156;2023-08-06T08:41:20;5.40;;;4.30;;
76552;SDS011;65395;53.168;18.156;2023-08-06T08:43:47;4.10;;;3.50;;
76552;SDS011;65395;53.168;18.156;2023-08-06T08:46:18;5.10;;;3.90;;
76552;SDS011;65395;53.168;18.156;2023-08-06T08:48:46;4.90;;;4.00;;
76552;SDS011;65395;53.168;18.156;2023-08-06T08:51:13;5.90;;;4.40;;
76552;SDS011;65395;53.168;18.156;2023-08-06T08:53:41;5.10;;;4.30;;
76552;SDS011;65395;53.168;18.156;2023-08-06T08:56:10;6.20;;;4.40;;
76552;SDS011;65395;53.168;18.156;2023-08-06T08:58:40;4.90;;;4.40;;
76552;SDS011;65395;53.168;18.156;2023-08-06T09:01:07;7.20;;;4.40;;
76552;SDS011;65395;53.168;18.156;2023-08-06T09:03:36;6.60;;;4.60;;
76552;SDS011;65395;53.168;18.156;2023-08-06T09:06:02;6.90;;;4.90;;
76552;SDS011;65395;53.168;18.156;2023-08-06T09:08:34;10.30;;;5.00;;
76552;SDS011;65395;53.168;18.156;2023-08-06T09:11:05;7.00;;;5.20;;
76552;SDS011;65395;53.168;18.156;2023-08-06T09:13:36;7.20;;;5.60;;
76552;SDS011;65395;53.168;18.156;2023-08-06T09:16:04;8.20;;;5.60;;
76552;SDS011;65395;53.168;18.156;2023-08-06T09:18:31;6.80;;;5.30;;
76552;SDS011;65395;53.168;18.156;2023-08-06T09:20:58;6.30;;;5.20;;
76552;SDS011;65395;53.168;18.156;2023-08-06T09:23:27;9.10;;;5.50;;
76552;SDS011;65395;53.168;18.156;2023-08-06T09:25:57;7.40;;;5.50;;
76552;SDS011;65395;53.168;18.156;2023-08-06T09:28:24;6.40;;;5.60;;
76552;SDS011;65395;53.168;18.156;2023-08-06T09:30:52;7.30;;;5.50;;
76552;SDS011;65395;53.168;18.156;2023-08-06T09:33:22;6.60;;;5.40;;
76552;SDS011;65395;53.168;18.156;2023-08-06T09:35:50;8.60;;;5.40;;
76552;SDS011;65395;53.168;18.156;2023-08-06T09:38:16;6.50;;;5.60;;
76552;SDS011;65395;53.168;18.156;2023-08-06T09:40:43;8.50;;;5.90;;
76552;SDS011;65395;53.168;18.156;2023-08-06T09:43:11;7.40;;;5.30;;
76552;SDS011;65395;53.168;18.156;2023-08-06T09:45:39;7.50;;;5.30;;
76552;SDS011;65395;53.168;18.156;2023-08-06T09:48:08;7.20;;;5.20;;
76552;SDS011;65395;53.168;18.156;2023-08-06T09:50:36;7.00;;;5.60;;
76552;SDS011;65395;53.168;18.156;2023-08-06T09:53:05;6.90;;;5.40;;
76552;SDS011;65395;53.168;18.156;2023-08-06T09:55:34;6.40;;;5.70;;
76552;SDS011;65395;53.168;18.156;2023-08-06T09:58:01;6.00;;;5.30;;
76552;SDS011;65395;53.168;18.156;2023-08-06T10:00:28;6.30;;;5.20;;
76552;SDS011;65395;53.168;18.156;2023-08-06T10:03:00;6.10;;;5.40;;
76552;SDS011;65395;53.168;18.156;2023-08-06T10:05:27;6.50;;;5.80;;
76552;SDS011;65395;53.168;18.156;2023-08-06T10:07:56;7.20;;;5.60;;
76552;SDS011;65395;53.168;18.156;2023-08-06T10:10:26;6.60;;;5.90;;
76552;SDS011;65395;53.168;18.156;2023-08-06T10:12:55;6.60;;;5.90;;
76552;SDS011;65395;53.168;18.156;2023-08-06T10:15:25;7.30;;;6.40;;
76552;SDS011;65395;53.168;18.156;2023-08-06T10:17:54;7.60;;;6.80;;
76552;SDS011;65395;53.168;18.156;2023-08-06T10:20:24;7.70;;;6.30;;
76552;SDS011;65395;53.168;18.156;2023-08-06T10:25:31;8.20;;;7.30;;
76552;SDS011;65395;53.168;18.156;2023-08-06T10:28:00;7.60;;;6.80;;
76552;SDS011;65395;53.168;18.156;2023-08-06T10:30:33;10.90;;;7.20;;
76552;SDS011;65395;53.168;18.156;2023-08-06T10:33:01;7.50;;;6.30;;
76552;SDS011;65395;53.168;18.156;2023-08-06T10:35:31;7.80;;;7.00;;
76552;SDS011;65395;53.168;18.156;2023-08-06T10:38:12;8.00;;;7.20;;
76552;SDS011;65395;53.168;18.156;2023-08-06T10:40:41;7.90;;;7.10;;
76552;SDS011;65395;53.168;18.156;2023-08-06T10:46:01;9.70;;;6.70;;
76552;SDS011;65395;53.168;18.156;2023-08-06T10:48:31;9.90;;;7.20;;
76552;SDS011;65395;53.168;18.156;2023-08-06T10:51:01;8.00;;;7.00;;
76552;SDS011;65395;53.168;18.156;2023-08-06T10:53:29;8.80;;;6.70;;
76552;SDS011;65395;53.168;18.156;2023-08-06T10:55:56;8.00;;;6.30;;
76552;SDS011;65395;53.168;18.156;2023-08-06T10:58:22;8.10;;;7.00;;
76552;SDS011;65395;53.168;18.156;2023-08-06T11:00:49;7.00;;;6.30;;
76552;SDS011;65395;53.168;18.156;2023-08-06T11:03:16;7.10;;;6.40;;
76552;SDS011;65395;53.168;18.156;2023-08-06T11:05:50;7.10;;;6.20;;
76552;SDS011;65395;53.168;18.156;2023-08-06T11:08:23;8.20;;;7.10;;
76552;SDS011;65395;53.168;18.156;2023-08-06T11:10:52;7.40;;;6.60;;
76552;SDS011;65395;53.168;18.156;2023-08-06T11:13:20;8.60;;;6.60;;
76552;SDS011;65395;53.168;18.156;2023-08-06T11:15:48;7.00;;;6.30;;
76552;SDS011;65395;53.168;18.156;2023-08-06T11:18:14;7.30;;;6.50;;
76552;SDS011;65395;53.168;18.156;2023-08-06T11:20:41;7.60;;;6.90;;
76552;SDS011;65395;53.168;18.156;2023-08-06T11:23:09;7.70;;;6.80;;
76552;SDS011;65395;53.168;18.156;2023-08-06T11:25:36;8.10;;;7.30;;
76552;SDS011;65395;53.168;18.156;2023-08-06T11:28:04;7.70;;;6.90;;
76552;SDS011;65395;53.168;18.156;2023-08-06T11:30:31;9.20;;;7.30;;
76552;SDS011;65395;53.168;18.156;2023-08-06T11:32:57;8.50;;;7.40;;
76552;SDS011;65395;53.168;18.156;2023-08-06T11:35:24;8.30;;;7.40;;
76552;SDS011;65395;53.168;18.156;2023-08-06T11:37:51;9.00;;;8.10;;
76552;SDS011;65395;53.168;18.156;2023-08-06T11:40:18;9.80;;;8.40;;
76552;SDS011;65395;53.168;18.156;2023-08-06T11:42:46;10.50;;;8.30;;
76552;SDS011;65395;53.168;18.156;2023-08-06T11:45:13;9.80;;;8.70;;
76552;SDS011;65395;53.168;18.156;2023-08-06T11:47:40;8.90;;;8.00;;
76552;SDS011;65395;53.168;18.156;2023-08-06T11:50:07;10.20;;;9.10;;
76552;SDS011;65395;53.168;18.156;2023-08-06T11:52:34;10.20;;;9.00;;
76552;SDS011;65395;53.168;18.156;2023-08-06T11:55:06;10.60;;;9.30;;
76552;SDS011;65395;53.168;18.156;2023-08-06T11:57:37;10.80;;;9.20;;
76552;SDS011;65395;53.168;18.156;2023-08-06T12:00:06;12.80;;;9.50;;
76552;SDS011;65395;53.168;18.156;2023-08-06T12:02:39;11.00;;;9.80;;
76552;SDS011;65395;53.168;18.156;2023-08-06T12:07:50;12.80;;;10.10;;
76552;SDS011;65395;53.168;18.156;2023-08-06T12:10:19;13.30;;;10.40;;
76552;SDS011;65395;53.168;18.156;2023-08-06T12:12:47;16.40;;;11.30;;
76552;SDS011;65395;53.168;18.156;2023-08-06T12:15:14;11.90;;;10.40;;
76552;SDS011;65395;53.168;18.156;2023-08-06T12:17:41;13.70;;;10.60;;
76552;SDS011;65395;53.168;18.156;2023-08-06T12:20:09;13.20;;;10.50;;
76552;SDS011;65395;53.168;18.156;2023-08-06T12:22:37;15.80;;;11.60;;
76552;SDS011;65395;53.168;18.156;2023-08-06T12:25:05;13.50;;;10.20;;
76552;SDS011;65395;53.168;18.156;2023-08-06T12:27:34;17.20;;;10.30;;
76552;SDS011;65395;53.168;18.156;2023-08-06T12:30:01;16.50;;;10.20;;
76552;SDS011;65395;53.168;18.156;2023-08-06T12:32:30;14.70;;;10.20;;
76552;SDS011;65395;53.168;18.156;2023-08-06T12:34:57;13.40;;;10.20;;
76552;SDS011;65395;53.168;18.156;2023-08-06T12:37:24;12.40;;;9.90;;
76552;SDS011;65395;53.168;18.156;2023-08-06T12:39:52;11.80;;;9.90;;
76552;SDS011;65395;53.168;18.156;2023-08-06T12:42:18;12.50;;;8.90;;
76552;SDS011;65395;53.168;18.156;2023-08-06T12:44:45;11.30;;;9.50;;
76552;SDS011;65395;53.168;18.156;2023-08-06T12:47:12;13.50;;;9.50;;
76552;SDS011;65395;53.168;18.156;2023-08-06T12:49:39;11.60;;;9.00;;
76552;SDS011;65395;53.168;18.156;2023-08-06T12:52:06;11.70;;;9.10;;
76552;SDS011;65395;53.168;18.156;2023-08-06T12:54:34;13.90;;;8.90;;
76552;SDS011;65395;53.168;18.156;2023-08-06T12:57:03;13.10;;;10.50;;
76552;SDS011;65395;53.168;18.156;2023-08-06T12:59:31;12.50;;;10.40;;
76552;SDS011;65395;53.168;18.156;2023-08-06T13:01:59;15.80;;;10.50;;
76552;SDS011;65395;53.168;18.156;2023-08-06T13:04:27;14.90;;;10.10;;
76552;SDS011;65395;53.168;18.156;2023-08-06T13:06:54;16.20;;;9.70;;
76552;SDS011;65395;53.168;18.156;2023-08-06T13:09:20;13.00;;;9.30;;
76552;SDS011;65395;53.168;18.156;2023-08-06T13:11:47;12.20;;;9.00;;
76552;SDS011;65395;53.168;18.156;2023-08-06T13:14:16;11.20;;;9.30;;
76552;SDS011;65395;53.168;18.156;2023-08-06T13:16:43;10.30;;;9.20;;
76552;SDS011;65395;53.168;18.156;2023-08-06T13:19:11;12.10;;;10.20;;
76552;SDS011;65395;53.168;18.156;2023-08-06T13:24:28;12.40;;;11.10;;
76552;SDS011;65395;53.168;18.156;2023-08-06T13:26:55;12.90;;;10.30;;
76552;SDS011;65395;53.168;18.156;2023-08-06T13:29:22;10.90;;;9.70;;
76552;SDS011;65395;53.168;18.156;2023-08-06T13:31:49;11.00;;;9.30;;
76552;SDS011;65395;53.168;18.156;2023-08-06T13:34:17;13.10;;;10.40;;
76552;SDS011;65395;53.168;18.156;2023-08-06T13:36:43;13.00;;;9.60;;
76552;SDS011;65395;53.168;18.156;2023-08-06T13:39:10;11.50;;;9.90;;
76552;SDS011;65395;53.168;18.156;2023-08-06T13:41:37;13.40;;;10.40;;
76552;SDS011;65395;53.168;18.156;2023-08-06T13:44:05;14.70;;;10.70;;
76552;SDS011;65395;53.168;18.156;2023-08-06T13:46:33;13.40;;;11.30;;
76552;SDS011;65395;53.168;18.156;2023-08-06T13:48:59;15.50;;;11.80;;
76552;SDS011;65395;53.168;18.156;2023-08-06T13:51:26;12.80;;;10.40;;
76552;SDS011;65395;53.168;18.156;2023-08-06T13:53:53;13.80;;;11.90;;
76552;SDS011;65395;53.168;18.156;2023-08-06T13:56:20;15.00;;;11.00;;
76552;SDS011;65395;53.168;18.156;2023-08-06T13:58:47;14.90;;;10.90;;
76552;SDS011;65395;53.168;18.156;2023-08-06T14:01:13;12.40;;;11.10;;
76552;SDS011;65395;53.168;18.156;2023-08-06T14:03:44;14.40;;;11.10;;
76552;SDS011;65395;53.168;18.156;2023-08-06T14:06:11;17.40;;;11.50;;
76552;SDS011;65395;53.168;18.156;2023-08-06T14:08:37;12.40;;;10.90;;
76552;SDS011;65395;53.168;18.156;2023-08-06T14:11:05;14.10;;;11.30;;
76552;SDS011;65395;53.168;18.156;2023-08-06T14:13:32;14.90;;;11.20;;
76552;SDS011;65395;53.168;18.156;2023-08-06T14:15:59;15.70;;;12.10;;
76552;SDS011;65395;53.168;18.156;2023-08-06T14:18:26;13.90;;;12.00;;
76552;SDS011;65395;53.168;18.156;2023-08-06T14:20:54;15.30;;;11.90;;
76552;SDS011;65395;53.168;18.156;2023-08-06T14:23:21;17.20;;;12.80;;
76552;SDS011;65395;53.168;18.156;2023-08-06T14:25:47;15.10;;;12.20;;
76552;SDS011;65395;53.168;18.156;2023-08-06T14:28:14;17.70;;;12.10;;
76552;SDS011;65395;53.168;18.156;2023-08-06T14:30:40;15.00;;;12.00;;
76552;SDS011;65395;53.168;18.156;2023-08-06T14:33:07;14.90;;;11.60;;
76552;SDS011;65395;53.168;18.156;2023-08-06T14:35:34;15.40;;;11.80;;
76552;SDS011;65395;53.168;18.156;2023-08-06T14:38:01;14.30;;;11.70;;
76552;SDS011;65395;53.168;18.156;2023-08-06T14:40:27;14.10;;;12.00;;
76552;SDS011;65395;53.168;18.156;2023-08-06T14:43:00;17.80;;;11.90;;
76552;SDS011;65395;53.168;18.156;2023-08-06T14:45:28;14.10;;;12.60;;